sensor_id;sensor_type;location;lat;lon;timestamp;P1;durP1;ratioP1;P2;durP2;ratioP2
48241;SDS011;34041;51.812;4.622;2024-03-25T00:00:33;14.33;;;3.43;;
48241;SDS011;34041;51.812;4.622;2024-03-25T00:03:34;9.45;;;3.50;;
48241;SDS011;34041;51.812;4.622;2024-03-25T00:06:34;20.10;;;4.63;;
48241;SDS011;34041;51.812;4.622;2024-03-25T00:09:34;17.92;;;3.70;;
48241;SDS011;34041;51.812;4.622;2024-03-25T00:12:35;8.63;;;2.88;;
48241;SDS011;34041;51.812;4.622;2024-03-25T00:15:36;13.20;;;3.25;;
48241;SDS011;34041;51.812;4.622;2024-03-25T00:18:37;15.98;;;4.35;;
48241;SDS011;34041;51.812;4.622;2024-03-25T00:21:37;12.68;;;4.53;;
48241;SDS011;34041;51.812;4.622;2024-03-25T00:24:38;11.55;;;3.33;;
48241;SDS011;34041;51.812;4.622;2024-03-25T00:27:39;18.02;;;3.47;;
48241;SDS011;34041;51.812;4.622;2024-03-25T00:30:39;20.92;;;3.65;;
48241;SDS011;34041;51.812;4.622;2024-03-25T00:33:40;13.88;;;3.28;;
48241;SDS011;34041;51.812;4.622;2024-03-25T00:36:40;19.55;;;3.33;;
48241;SDS011;34041;51.812;4.622;2024-03-25T00:39:40;13.93;;;4.27;;
48241;SDS011;34041;51.812;4.622;2024-03-25T00:42:40;20.58;;;5.47;;
48241;SDS011;34041;51.812;4.622;2024-03-25T00:45:41;12.40;;;4.20;;
48241;SDS011;34041;51.812;4.622;2024-03-25T00:48:41;12.25;;;3.40;;
48241;SDS011;34041;51.812;4.622;2024-03-25T00:51:43;20.20;;;4.82;;
48241;SDS011;34041;51.812;4.622;2024-03-25T00:54:43;11.07;;;2.50;;
48241;SDS011;34041;51.812;4.622;2024-03-25T00:57:43;12.00;;;2.80;;
48241;SDS011;34041;51.812;4.622;2024-03-25T01:00:43;21.55;;;3.83;;
48241;SDS011;34041;51.812;4.622;2024-03-25T01:03:43;13.53;;;3.27;;
48241;SDS011;34041;51.812;4.622;2024-03-25T01:06:44;6.00;;;2.10;;
48241;SDS011;34041;51.812;4.622;2024-03-25T01:09:44;12.50;;;3.70;;
48241;SDS011;34041;51.812;4.622;2024-03-25T01:12:44;11.05;;;3.35;;
48241;SDS011;34041;51.812;4.622;2024-03-25T01:15:45;13.73;;;4.20;;
48241;SDS011;34041;51.812;4.622;2024-03-25T01:18:45;25.42;;;5.18;;
48241;SDS011;34041;51.812;4.622;2024-03-25T01:21:45;14.93;;;3.73;;
48241;SDS011;34041;51.812;4.622;2024-03-25T01:24:46;15.83;;;4.10;;
48241;SDS011;34041;51.812;4.622;2024-03-25T01:27:46;12.03;;;2.70;;
48241;SDS011;34041;51.812;4.622;2024-03-25T01:30:46;11.00;;;2.53;;
48241;SDS011;34041;51.812;4.622;2024-03-25T01:33:46;7.90;;;2.37;;
48241;SDS011;34041;51.812;4.622;2024-03-25T01:36:46;15.90;;;2.97;;
48241;SDS011;34041;51.812;4.622;2024-03-25T01:39:47;9.17;;;2.90;;
48241;SDS011;34041;51.812;4.622;2024-03-25T01:42:56;19.13;;;2.97;;
48241;SDS011;34041;51.812;4.622;2024-03-25T01:45:56;17.63;;;3.00;;
48241;SDS011;34041;51.812;4.622;2024-03-25T01:48:56;14.15;;;3.28;;
48241;SDS011;34041;51.812;4.622;2024-03-25T01:51:58;14.82;;;3.40;;
48241;SDS011;34041;51.812;4.622;2024-03-25T01:54:58;14.63;;;2.60;;
48241;SDS011;34041;51.812;4.622;2024-03-25T01:57:59;10.55;;;2.97;;
48241;SDS011;34041;51.812;4.622;2024-03-25T02:00:59;13.60;;;3.63;;
48241;SDS011;34041;51.812;4.622;2024-03-25T02:04:03;19.30;;;4.28;;
48241;SDS011;34041;51.812;4.622;2024-03-25T02:07:03;14.73;;;2.78;;
48241;SDS011;34041;51.812;4.622;2024-03-25T02:10:04;16.63;;;3.67;;
48241;SDS011;34041;51.812;4.622;2024-03-25T02:13:04;8.80;;;2.47;;
48241;SDS011;34041;51.812;4.622;2024-03-25T02:16:05;11.85;;;3.22;;
48241;SDS011;34041;51.812;4.622;2024-03-25T02:19:05;19.25;;;3.35;;
48241;SDS011;34041;51.812;4.622;2024-03-25T02:22:06;15.93;;;3.90;;
48241;SDS011;34041;51.812;4.622;2024-03-25T02:25:07;10.02;;;2.53;;
48241;SDS011;34041;51.812;4.622;2024-03-25T02:28:10;16.38;;;3.60;;
48241;SDS011;34041;51.812;4.622;2024-03-25T02:31:11;14.10;;;3.03;;
48241;SDS011;34041;51.812;4.622;2024-03-25T02:34:11;11.70;;;4.47;;
48241;SDS011;34041;51.812;4.622;2024-03-25T02:37:11;19.70;;;3.93;;
48241;SDS011;34041;51.812;4.622;2024-03-25T02:40:11;10.27;;;4.00;;
48241;SDS011;34041;51.812;4.622;2024-03-25T02:43:11;18.47;;;4.53;;
48241;SDS011;34041;51.812;4.622;2024-03-25T02:46:12;11.17;;;3.10;;
48241;SDS011;34041;51.812;4.622;2024-03-25T02:49:12;26.30;;;7.78;;
48241;SDS011;34041;51.812;4.622;2024-03-25T02:52:12;13.05;;;4.13;;
48241;SDS011;34041;51.812;4.622;2024-03-25T02:55:12;15.57;;;4.40;;
48241;SDS011;34041;51.812;4.622;2024-03-25T02:58:13;18.63;;;4.80;;
48241;SDS011;34041;51.812;4.622;2024-03-25T03:01:15;13.67;;;3.80;;
48241;SDS011;34041;51.812;4.622;2024-03-25T03:04:15;9.93;;;2.55;;
48241;SDS011;34041;51.812;4.622;2024-03-25T03:07:16;18.30;;;3.67;;
48241;SDS011;34041;51.812;4.622;2024-03-25T03:10:16;13.20;;;3.65;;
48241;SDS011;34041;51.812;4.622;2024-03-25T03:13:16;16.38;;;3.33;;
48241;SDS011;34041;51.812;4.622;2024-03-25T03:16:16;16.23;;;5.17;;
48241;SDS011;34041;51.812;4.622;2024-03-25T03:19:16;16.47;;;3.30;;
48241;SDS011;34041;51.812;4.622;2024-03-25T03:22:17;11.87;;;3.47;;
48241;SDS011;34041;51.812;4.622;2024-03-25T03:25:17;8.47;;;2.53;;
48241;SDS011;34041;51.812;4.622;2024-03-25T03:28:17;13.03;;;3.30;;
48241;SDS011;34041;51.812;4.622;2024-03-25T03:31:17;16.90;;;4.73;;
48241;SDS011;34041;51.812;4.622;2024-03-25T03:34:17;10.27;;;3.23;;
48241;SDS011;34041;51.812;4.622;2024-03-25T03:37:18;10.07;;;3.27;;
48241;SDS011;34041;51.812;4.622;2024-03-25T03:40:18;17.53;;;4.93;;
48241;SDS011;34041;51.812;4.622;2024-03-25T03:43:18;16.43;;;3.27;;
48241;SDS011;34041;51.812;4.622;2024-03-25T03:46:18;10.43;;;4.03;;
48241;SDS011;34041;51.812;4.622;2024-03-25T03:49:18;14.77;;;3.53;;
48241;SDS011;34041;51.812;4.622;2024-03-25T03:52:19;12.73;;;4.17;;
48241;SDS011;34041;51.812;4.622;2024-03-25T03:55:19;13.10;;;3.03;;
48241;SDS011;34041;51.812;4.622;2024-03-25T03:58:19;9.90;;;3.08;;
48241;SDS011;34041;51.812;4.622;2024-03-25T04:01:19;16.73;;;3.63;;
48241;SDS011;34041;51.812;4.622;2024-03-25T04:04:20;15.90;;;2.90;;
48241;SDS011;34041;51.812;4.622;2024-03-25T04:07:20;15.70;;;3.63;;
48241;SDS011;34041;51.812;4.622;2024-03-25T04:10:23;15.55;;;3.08;;
48241;SDS011;34041;51.812;4.622;2024-03-25T04:13:24;11.32;;;4.50;;
48241;SDS011;34041;51.812;4.622;2024-03-25T04:16:24;18.80;;;4.10;;
48241;SDS011;34041;51.812;4.622;2024-03-25T04:19:24;13.80;;;3.53;;
48241;SDS011;34041;51.812;4.622;2024-03-25T04:22:24;12.52;;;3.17;;
48241;SDS011;34041;51.812;4.622;2024-03-25T04:25:24;17.80;;;4.37;;
48241;SDS011;34041;51.812;4.622;2024-03-25T04:28:25;18.27;;;4.20;;
48241;SDS011;34041;51.812;4.622;2024-03-25T04:31:25;14.17;;;4.60;;
48241;SDS011;34041;51.812;4.622;2024-03-25T04:34:25;15.53;;;3.93;;
48241;SDS011;34041;51.812;4.622;2024-03-25T04:37:26;20.67;;;4.40;;
48241;SDS011;34041;51.812;4.622;2024-03-25T04:40:27;11.68;;;4.32;;
48241;SDS011;34041;51.812;4.622;2024-03-25T04:43:28;16.67;;;7.20;;
48241;SDS011;34041;51.812;4.622;2024-03-25T04:46:28;15.77;;;4.53;;
48241;SDS011;34041;51.812;4.622;2024-03-25T04:49:28;15.50;;;5.27;;
48241;SDS011;34041;51.812;4.622;2024-03-25T04:52:29;17.85;;;5.50;;
48241;SDS011;34041;51.812;4.622;2024-03-25T04:55:29;16.77;;;6.37;;
48241;SDS011;34041;51.812;4.622;2024-03-25T04:58:29;14.18;;;5.07;;
48241;SDS011;34041;51.812;4.622;2024-03-25T05:01:29;16.87;;;6.23;;
48241;SDS011;34041;51.812;4.622;2024-03-25T05:04:30;22.60;;;6.57;;
48241;SDS011;34041;51.812;4.622;2024-03-25T05:07:30;14.82;;;6.40;;
48241;SDS011;34041;51.812;4.622;2024-03-25T05:10:31;22.23;;;7.63;;
48241;SDS011;34041;51.812;4.622;2024-03-25T05:13:31;17.13;;;7.23;;
48241;SDS011;34041;51.812;4.622;2024-03-25T05:16:31;20.20;;;7.67;;
48241;SDS011;34041;51.812;4.622;2024-03-25T05:19:31;18.20;;;7.27;;
48241;SDS011;34041;51.812;4.622;2024-03-25T05:22:31;23.43;;;8.57;;
48241;SDS011;34041;51.812;4.622;2024-03-25T05:25:32;17.27;;;7.17;;
48241;SDS011;34041;51.812;4.622;2024-03-25T05:28:32;15.10;;;7.90;;
48241;SDS011;34041;51.812;4.622;2024-03-25T05:31:32;22.20;;;7.53;;
48241;SDS011;34041;51.812;4.622;2024-03-25T05:34:32;24.63;;;7.93;;
48241;SDS011;34041;51.812;4.622;2024-03-25T05:37:32;18.13;;;7.90;;
48241;SDS011;34041;51.812;4.622;2024-03-25T05:40:34;15.73;;;7.90;;
48241;SDS011;34041;51.812;4.622;2024-03-25T05:43:34;21.65;;;8.55;;
48241;SDS011;34041;51.812;4.622;2024-03-25T05:46:34;18.17;;;9.35;;
48241;SDS011;34041;51.812;4.622;2024-03-25T05:49:35;20.85;;;8.13;;
48241;SDS011;34041;51.812;4.622;2024-03-25T05:52:35;18.93;;;8.40;;
48241;SDS011;34041;51.812;4.622;2024-03-25T05:55:35;19.63;;;9.27;;
48241;SDS011;34041;51.812;4.622;2024-03-25T05:58:35;20.50;;;10.67;;
48241;SDS011;34041;51.812;4.622;2024-03-25T06:01:36;19.37;;;11.83;;
48241;SDS011;34041;51.812;4.622;2024-03-25T06:04:37;20.08;;;11.65;;
48241;SDS011;34041;51.812;4.622;2024-03-25T06:07:37;21.13;;;11.77;;
48241;SDS011;34041;51.812;4.622;2024-03-25T06:10:37;27.20;;;11.53;;
48241;SDS011;34041;51.812;4.622;2024-03-25T06:13:38;20.27;;;11.57;;
48241;SDS011;34041;51.812;4.622;2024-03-25T06:16:38;20.80;;;11.60;;
48241;SDS011;34041;51.812;4.622;2024-03-25T06:19:38;21.20;;;10.03;;
48241;SDS011;34041;51.812;4.622;2024-03-25T06:22:38;24.57;;;10.63;;
48241;SDS011;34041;51.812;4.622;2024-03-25T06:25:38;26.03;;;11.50;;
48241;SDS011;34041;51.812;4.622;2024-03-25T06:28:39;15.37;;;9.87;;
48241;SDS011;34041;51.812;4.622;2024-03-25T06:31:39;22.65;;;11.95;;
48241;SDS011;34041;51.812;4.622;2024-03-25T06:34:58;27.35;;;9.57;;
48241;SDS011;34041;51.812;4.622;2024-03-25T06:38:01;19.00;;;10.65;;
48241;SDS011;34041;51.812;4.622;2024-03-25T06:41:01;16.03;;;8.87;;
48241;SDS011;34041;51.812;4.622;2024-03-25T06:44:02;12.88;;;8.68;;
48241;SDS011;34041;51.812;4.622;2024-03-25T06:47:02;17.83;;;9.63;;
48241;SDS011;34041;51.812;4.622;2024-03-25T06:50:03;16.90;;;9.07;;
48241;SDS011;34041;51.812;4.622;2024-03-25T06:53:03;12.85;;;7.45;;
48241;SDS011;34041;51.812;4.622;2024-03-25T06:56:03;12.98;;;7.85;;
48241;SDS011;34041;51.812;4.622;2024-03-25T06:59:03;13.15;;;7.40;;
48241;SDS011;34041;51.812;4.622;2024-03-25T07:02:04;12.20;;;8.13;;
48241;SDS011;34041;51.812;4.622;2024-03-25T07:05:05;13.90;;;7.78;;
48241;SDS011;34041;51.812;4.622;2024-03-25T07:08:05;12.52;;;7.22;;
48241;SDS011;34041;51.812;4.622;2024-03-25T07:11:05;9.93;;;6.68;;
48241;SDS011;34041;51.812;4.622;2024-03-25T07:14:06;10.90;;;6.75;;
48241;SDS011;34041;51.812;4.622;2024-03-25T07:17:06;12.15;;;7.35;;
48241;SDS011;34041;51.812;4.622;2024-03-25T07:20:07;14.67;;;8.10;;
48241;SDS011;34041;51.812;4.622;2024-03-25T07:23:08;13.50;;;7.60;;
48241;SDS011;34041;51.812;4.622;2024-03-25T07:26:08;14.35;;;6.88;;
48241;SDS011;34041;51.812;4.622;2024-03-25T07:29:08;14.93;;;7.43;;
48241;SDS011;34041;51.812;4.622;2024-03-25T07:32:09;13.00;;;6.90;;
48241;SDS011;34041;51.812;4.622;2024-03-25T07:35:09;10.03;;;6.80;;
48241;SDS011;34041;51.812;4.622;2024-03-25T07:38:09;11.30;;;7.05;;
48241;SDS011;34041;51.812;4.622;2024-03-25T07:41:10;11.13;;;7.00;;
48241;SDS011;34041;51.812;4.622;2024-03-25T07:44:10;11.48;;;7.07;;
48241;SDS011;34041;51.812;4.622;2024-03-25T07:47:10;10.43;;;7.90;;
48241;SDS011;34041;51.812;4.622;2024-03-25T07:50:10;12.03;;;7.30;;
48241;SDS011;34041;51.812;4.622;2024-03-25T07:53:11;11.57;;;7.03;;
48241;SDS011;34041;51.812;4.622;2024-03-25T07:56:11;12.17;;;8.03;;
48241;SDS011;34041;51.812;4.622;2024-03-25T07:59:11;12.07;;;7.97;;
48241;SDS011;34041;51.812;4.622;2024-03-25T08:02:11;13.30;;;8.07;;
48241;SDS011;34041;51.812;4.622;2024-03-25T08:05:11;13.57;;;8.68;;
48241;SDS011;34041;51.812;4.622;2024-03-25T08:08:12;11.27;;;8.43;;
48241;SDS011;34041;51.812;4.622;2024-03-25T08:11:12;13.38;;;8.98;;
48241;SDS011;34041;51.812;4.622;2024-03-25T08:14:13;16.67;;;8.40;;
48241;SDS011;34041;51.812;4.622;2024-03-25T08:17:13;15.83;;;8.47;;
48241;SDS011;34041;51.812;4.622;2024-03-25T08:20:13;13.90;;;8.93;;
48241;SDS011;34041;51.812;4.622;2024-03-25T08:23:13;15.97;;;8.93;;
48241;SDS011;34041;51.812;4.622;2024-03-25T08:26:13;16.77;;;8.60;;
48241;SDS011;34041;51.812;4.622;2024-03-25T08:29:14;16.35;;;9.05;;
48241;SDS011;34041;51.812;4.622;2024-03-25T08:32:14;14.43;;;10.00;;
48241;SDS011;34041;51.812;4.622;2024-03-25T08:35:14;13.73;;;11.37;;
48241;SDS011;34041;51.812;4.622;2024-03-25T08:38:14;16.93;;;10.57;;
48241;SDS011;34041;51.812;4.622;2024-03-25T08:41:15;18.73;;;10.97;;
48241;SDS011;34041;51.812;4.622;2024-03-25T08:44:15;25.83;;;13.30;;
48241;SDS011;34041;51.812;4.622;2024-03-25T08:47:15;20.90;;;13.87;;
48241;SDS011;34041;51.812;4.622;2024-03-25T08:50:15;29.57;;;20.53;;
48241;SDS011;34041;51.812;4.622;2024-03-25T08:53:15;22.03;;;19.57;;
48241;SDS011;34041;51.812;4.622;2024-03-25T08:56:16;38.77;;;28.00;;
48241;SDS011;34041;51.812;4.622;2024-03-25T08:59:16;34.83;;;28.50;;
48241;SDS011;34041;51.812;4.622;2024-03-25T09:02:16;40.57;;;31.43;;
48241;SDS011;34041;51.812;4.622;2024-03-25T09:05:16;34.10;;;25.63;;
48241;SDS011;34041;51.812;4.622;2024-03-25T09:08:18;27.58;;;24.27;;
48241;SDS011;34041;51.812;4.622;2024-03-25T09:11:18;31.17;;;24.20;;
48241;SDS011;34041;51.812;4.622;2024-03-25T09:14:18;38.97;;;26.30;;
48241;SDS011;34041;51.812;4.622;2024-03-25T09:17:18;36.17;;;26.60;;
48241;SDS011;34041;51.812;4.622;2024-03-25T09:20:19;34.00;;;28.07;;
48241;SDS011;34041;51.812;4.622;2024-03-25T09:23:20;33.72;;;28.23;;
48241;SDS011;34041;51.812;4.622;2024-03-25T09:26:20;31.43;;;27.10;;
48241;SDS011;34041;51.812;4.622;2024-03-25T09:29:21;29.97;;;25.70;;
48241;SDS011;34041;51.812;4.622;2024-03-25T09:32:21;33.73;;;28.97;;
48241;SDS011;34041;51.812;4.622;2024-03-25T09:35:21;33.15;;;25.55;;
48241;SDS011;34041;51.812;4.622;2024-03-25T09:38:22;32.27;;;27.43;;
48241;SDS011;34041;51.812;4.622;2024-03-25T09:41:22;40.20;;;28.70;;
48241;SDS011;34041;51.812;4.622;2024-03-25T09:44:24;35.10;;;29.23;;
48241;SDS011;34041;51.812;4.622;2024-03-25T09:47:24;37.47;;;29.90;;
48241;SDS011;34041;51.812;4.622;2024-03-25T09:50:25;32.15;;;25.30;;
48241;SDS011;34041;51.812;4.622;2024-03-25T09:53:25;29.38;;;23.27;;
48241;SDS011;34041;51.812;4.622;2024-03-25T09:56:25;27.23;;;24.00;;
48241;SDS011;34041;51.812;4.622;2024-03-25T09:59:26;32.28;;;27.10;;
48241;SDS011;34041;51.812;4.622;2024-03-25T10:02:28;36.92;;;27.77;;
48241;SDS011;34041;51.812;4.622;2024-03-25T10:05:29;38.15;;;26.92;;
48241;SDS011;34041;51.812;4.622;2024-03-25T10:08:29;38.43;;;27.57;;
48241;SDS011;34041;51.812;4.622;2024-03-25T10:11:30;36.88;;;23.30;;
48241;SDS011;34041;51.812;4.622;2024-03-25T10:14:32;31.55;;;23.15;;
48241;SDS011;34041;51.812;4.622;2024-03-25T10:17:32;31.60;;;21.53;;
48241;SDS011;34041;51.812;4.622;2024-03-25T10:20:32;31.58;;;19.95;;
48241;SDS011;34041;51.812;4.622;2024-03-25T10:23:34;26.02;;;18.60;;
48241;SDS011;34041;51.812;4.622;2024-03-25T10:26:40;25.98;;;19.83;;
48241;SDS011;34041;51.812;4.622;2024-03-25T10:29:42;25.15;;;18.17;;
48241;SDS011;34041;51.812;4.622;2024-03-25T10:32:42;25.77;;;17.47;;
48241;SDS011;34041;51.812;4.622;2024-03-25T10:35:43;29.43;;;21.13;;
48241;SDS011;34041;51.812;4.622;2024-03-25T10:38:44;24.58;;;15.65;;
48241;SDS011;34041;51.812;4.622;2024-03-25T10:41:46;19.83;;;13.75;;
48241;SDS011;34041;51.812;4.622;2024-03-25T10:44:47;19.35;;;14.75;;
48241;SDS011;34041;51.812;4.622;2024-03-25T10:47:47;17.48;;;11.15;;
48241;SDS011;34041;51.812;4.622;2024-03-25T10:50:48;19.05;;;10.82;;
48241;SDS011;34041;51.812;4.622;2024-03-25T10:53:52;16.40;;;9.63;;
48241;SDS011;34041;51.812;4.622;2024-03-25T10:56:53;14.98;;;8.68;;
48241;SDS011;34041;51.812;4.622;2024-03-25T10:59:54;14.63;;;8.63;;
48241;SDS011;34041;51.812;4.622;2024-03-25T11:02:55;17.80;;;9.27;;
48241;SDS011;34041;51.812;4.622;2024-03-25T11:05:55;16.38;;;8.90;;
48241;SDS011;34041;51.812;4.622;2024-03-25T11:08:58;9.10;;;6.00;;
48241;SDS011;34041;51.812;4.622;2024-03-25T11:11:59;12.48;;;5.82;;
48241;SDS011;34041;51.812;4.622;2024-03-25T11:15:00;15.70;;;7.10;;
48241;SDS011;34041;51.812;4.622;2024-03-25T11:18:01;11.57;;;6.10;;
48241;SDS011;34041;51.812;4.622;2024-03-25T11:21:04;12.35;;;6.80;;
48241;SDS011;34041;51.812;4.622;2024-03-25T11:24:06;11.00;;;7.00;;
48241;SDS011;34041;51.812;4.622;2024-03-25T11:27:06;13.75;;;6.57;;
48241;SDS011;34041;51.812;4.622;2024-03-25T11:30:07;16.17;;;7.18;;
48241;SDS011;34041;51.812;4.622;2024-03-25T11:33:07;9.43;;;5.90;;
48241;SDS011;34041;51.812;4.622;2024-03-25T11:36:09;9.77;;;4.18;;
48241;SDS011;34041;51.812;4.622;2024-03-25T11:39:09;12.75;;;4.45;;
48241;SDS011;34041;51.812;4.622;2024-03-25T11:42:10;8.95;;;4.93;;
48241;SDS011;34041;51.812;4.622;2024-03-25T11:45:20;11.27;;;5.55;;
48241;SDS011;34041;51.812;4.622;2024-03-25T11:48:20;8.50;;;4.78;;
48241;SDS011;34041;51.812;4.622;2024-03-25T11:51:20;8.53;;;5.27;;
48241;SDS011;34041;51.812;4.622;2024-03-25T11:54:21;8.83;;;4.50;;
48241;SDS011;34041;51.812;4.622;2024-03-25T11:57:21;12.07;;;6.47;;
48241;SDS011;34041;51.812;4.622;2024-03-25T12:00:22;10.30;;;4.97;;
48241;SDS011;34041;51.812;4.622;2024-03-25T12:03:22;7.07;;;4.85;;
48241;SDS011;34041;51.812;4.622;2024-03-25T12:06:22;8.50;;;4.57;;
48241;SDS011;34041;51.812;4.622;2024-03-25T12:09:23;7.78;;;4.45;;
48241;SDS011;34041;51.812;4.622;2024-03-25T12:12:42;7.88;;;4.07;;
48241;SDS011;34041;51.812;4.622;2024-03-25T12:15:43;8.52;;;4.20;;
48241;SDS011;34041;51.812;4.622;2024-03-25T12:18:44;12.27;;;4.27;;
48241;SDS011;34041;51.812;4.622;2024-03-25T12:21:44;9.65;;;4.57;;
48241;SDS011;34041;51.812;4.622;2024-03-25T12:24:48;7.07;;;4.13;;
48241;SDS011;34041;51.812;4.622;2024-03-25T12:27:48;8.70;;;3.72;;
48241;SDS011;34041;51.812;4.622;2024-03-25T12:30:50;5.30;;;3.00;;
48241;SDS011;34041;51.812;4.622;2024-03-25T12:33:50;12.07;;;3.10;;
48241;SDS011;34041;51.812;4.622;2024-03-25T12:36:50;6.65;;;4.07;;
48241;SDS011;34041;51.812;4.622;2024-03-25T12:39:51;4.32;;;3.00;;
48241;SDS011;34041;51.812;4.622;2024-03-25T12:42:54;6.27;;;3.23;;
48241;SDS011;34041;51.812;4.622;2024-03-25T12:45:54;5.40;;;2.95;;
48241;SDS011;34041;51.812;4.622;2024-03-25T12:48:54;9.17;;;3.23;;
48241;SDS011;34041;51.812;4.622;2024-03-25T12:51:55;7.40;;;3.40;;
48241;SDS011;34041;51.812;4.622;2024-03-25T12:54:55;5.53;;;3.93;;
48241;SDS011;34041;51.812;4.622;2024-03-25T12:57:55;7.40;;;3.77;;
48241;SDS011;34041;51.812;4.622;2024-03-25T13:00:55;6.27;;;3.53;;
48241;SDS011;34041;51.812;4.622;2024-03-25T13:03:55;8.27;;;3.90;;
48241;SDS011;34041;51.812;4.622;2024-03-25T13:06:56;6.20;;;3.47;;
48241;SDS011;34041;51.812;4.622;2024-03-25T13:09:56;6.67;;;3.37;;
48241;SDS011;34041;51.812;4.622;2024-03-25T13:12:56;6.00;;;3.40;;
48241;SDS011;34041;51.812;4.622;2024-03-25T13:15:56;4.72;;;2.80;;
48241;SDS011;34041;51.812;4.622;2024-03-25T13:18:57;6.77;;;2.73;;
48241;SDS011;34041;51.812;4.622;2024-03-25T13:21:57;8.63;;;3.70;;
48241;SDS011;34041;51.812;4.622;2024-03-25T13:24:57;7.65;;;3.58;;
48241;SDS011;34041;51.812;4.622;2024-03-25T13:27:58;6.88;;;3.25;;
48241;SDS011;34041;51.812;4.622;2024-03-25T13:30:58;7.38;;;3.28;;
48241;SDS011;34041;51.812;4.622;2024-03-25T13:33:58;7.40;;;3.23;;
48241;SDS011;34041;51.812;4.622;2024-03-25T13:36:58;6.57;;;3.20;;
48241;SDS011;34041;51.812;4.622;2024-03-25T13:39:59;7.53;;;3.17;;
48241;SDS011;34041;51.812;4.622;2024-03-25T13:42:59;9.63;;;3.10;;
48241;SDS011;34041;51.812;4.622;2024-03-25T13:45:59;5.93;;;3.13;;
48241;SDS011;34041;51.812;4.622;2024-03-25T13:48:59;9.00;;;3.40;;
48241;SDS011;34041;51.812;4.622;2024-03-25T13:51:59;6.77;;;3.70;;
48241;SDS011;34041;51.812;4.622;2024-03-25T13:55:00;12.90;;;3.60;;
48241;SDS011;34041;51.812;4.622;2024-03-25T13:58:00;5.00;;;3.40;;
48241;SDS011;34041;51.812;4.622;2024-03-25T14:01:01;5.28;;;2.88;;
48241;SDS011;34041;51.812;4.622;2024-03-25T14:04:01;7.88;;;3.10;;
48241;SDS011;34041;51.812;4.622;2024-03-25T14:07:02;8.00;;;3.43;;
48241;SDS011;34041;51.812;4.622;2024-03-25T14:10:02;9.25;;;3.70;;
48241;SDS011;34041;51.812;4.622;2024-03-25T14:13:03;10.60;;;3.80;;
48241;SDS011;34041;51.812;4.622;2024-03-25T14:16:05;8.65;;;3.80;;
48241;SDS011;34041;51.812;4.622;2024-03-25T14:19:05;5.78;;;3.70;;
48241;SDS011;34041;51.812;4.622;2024-03-25T14:22:06;5.10;;;3.00;;
48241;SDS011;34041;51.812;4.622;2024-03-25T14:25:07;6.95;;;3.00;;
48241;SDS011;34041;51.812;4.622;2024-03-25T14:28:07;4.80;;;3.00;;
48241;SDS011;34041;51.812;4.622;2024-03-25T14:31:08;3.77;;;2.30;;
48241;SDS011;34041;51.812;4.622;2024-03-25T14:34:08;8.15;;;3.05;;
48241;SDS011;34041;51.812;4.622;2024-03-25T14:37:08;4.43;;;2.60;;
48241;SDS011;34041;51.812;4.622;2024-03-25T14:40:08;9.27;;;3.47;;
48241;SDS011;34041;51.812;4.622;2024-03-25T14:43:09;9.38;;;2.97;;
48241;SDS011;34041;51.812;4.622;2024-03-25T14:46:09;3.87;;;2.97;;
48241;SDS011;34041;51.812;4.622;2024-03-25T14:49:09;5.83;;;2.60;;
48241;SDS011;34041;51.812;4.622;2024-03-25T14:52:09;4.90;;;2.88;;
48241;SDS011;34041;51.812;4.622;2024-03-25T14:55:10;6.60;;;2.30;;
48241;SDS011;34041;51.812;4.622;2024-03-25T14:58:11;8.18;;;2.45;;
48241;SDS011;34041;51.812;4.622;2024-03-25T15:01:11;9.23;;;3.50;;
48241;SDS011;34041;51.812;4.622;2024-03-25T15:04:11;4.70;;;2.27;;
48241;SDS011;34041;51.812;4.622;2024-03-25T15:07:12;5.63;;;2.25;;
48241;SDS011;34041;51.812;4.622;2024-03-25T15:10:12;6.30;;;2.93;;
48241;SDS011;34041;51.812;4.622;2024-03-25T15:13:12;5.90;;;3.03;;
48241;SDS011;34041;51.812;4.622;2024-03-25T15:16:12;6.25;;;2.33;;
48241;SDS011;34041;51.812;4.622;2024-03-25T15:19:12;3.43;;;2.13;;
48241;SDS011;34041;51.812;4.622;2024-03-25T15:22:13;4.93;;;2.53;;
48241;SDS011;34041;51.812;4.622;2024-03-25T15:25:13;5.17;;;3.10;;
48241;SDS011;34041;51.812;4.622;2024-03-25T15:28:14;2.67;;;1.65;;
48241;SDS011;34041;51.812;4.622;2024-03-25T15:31:15;3.70;;;2.73;;
48241;SDS011;34041;51.812;4.622;2024-03-25T15:34:15;5.70;;;1.95;;
48241;SDS011;34041;51.812;4.622;2024-03-25T15:37:15;3.70;;;1.70;;
48241;SDS011;34041;51.812;4.622;2024-03-25T15:40:16;3.47;;;1.67;;
48241;SDS011;34041;51.812;4.622;2024-03-25T15:43:18;5.05;;;1.92;;
48241;SDS011;34041;51.812;4.622;2024-03-25T15:46:18;5.57;;;2.40;;
48241;SDS011;34041;51.812;4.622;2024-03-25T15:49:19;3.88;;;1.65;;
48241;SDS011;34041;51.812;4.622;2024-03-25T15:52:19;4.15;;;2.35;;
48241;SDS011;34041;51.812;4.622;2024-03-25T15:55:19;7.10;;;2.60;;
48241;SDS011;34041;51.812;4.622;2024-03-25T15:58:19;6.07;;;1.95;;
48241;SDS011;34041;51.812;4.622;2024-03-25T16:01:19;3.47;;;1.70;;
48241;SDS011;34041;51.812;4.622;2024-03-25T16:04:20;4.20;;;1.60;;
48241;SDS011;34041;51.812;4.622;2024-03-25T16:07:20;7.60;;;2.43;;
48241;SDS011;34041;51.812;4.622;2024-03-25T16:10:23;4.73;;;1.80;;
48241;SDS011;34041;51.812;4.622;2024-03-25T16:13:24;3.85;;;1.83;;
48241;SDS011;34041;51.812;4.622;2024-03-25T16:16:24;5.70;;;1.98;;
48241;SDS011;34041;51.812;4.622;2024-03-25T16:19:24;3.87;;;2.13;;
48241;SDS011;34041;51.812;4.622;2024-03-25T16:22:25;6.47;;;2.57;;
48241;SDS011;34041;51.812;4.622;2024-03-25T16:25:26;4.25;;;2.30;;
48241;SDS011;34041;51.812;4.622;2024-03-25T16:28:26;3.45;;;1.75;;
48241;SDS011;34041;51.812;4.622;2024-03-25T16:31:27;5.90;;;2.72;;
48241;SDS011;34041;51.812;4.622;2024-03-25T16:34:27;10.60;;;1.87;;
48241;SDS011;34041;51.812;4.622;2024-03-25T16:37:28;4.50;;;1.83;;
48241;SDS011;34041;51.812;4.622;2024-03-25T16:40:28;6.03;;;2.08;;
48241;SDS011;34041;51.812;4.622;2024-03-25T16:43:29;6.17;;;2.13;;
48241;SDS011;34041;51.812;4.622;2024-03-25T16:46:29;3.33;;;1.70;;
48241;SDS011;34041;51.812;4.622;2024-03-25T16:49:29;4.83;;;2.03;;
48241;SDS011;34041;51.812;4.622;2024-03-25T16:52:29;6.77;;;2.77;;
48241;SDS011;34041;51.812;4.622;2024-03-25T16:55:29;4.68;;;2.35;;
48241;SDS011;34041;51.812;4.622;2024-03-25T16:58:30;5.53;;;2.43;;
48241;SDS011;34041;51.812;4.622;2024-03-25T17:01:30;6.23;;;2.70;;
48241;SDS011;34041;51.812;4.622;2024-03-25T17:04:31;5.47;;;2.27;;
48241;SDS011;34041;51.812;4.622;2024-03-25T17:07:31;5.68;;;2.70;;
48241;SDS011;34041;51.812;4.622;2024-03-25T17:10:31;7.68;;;3.03;;
48241;SDS011;34041;51.812;4.622;2024-03-25T17:13:31;8.93;;;3.40;;
48241;SDS011;34041;51.812;4.622;2024-03-25T17:16:32;6.63;;;3.17;;
48241;SDS011;34041;51.812;4.622;2024-03-25T17:19:32;6.65;;;2.70;;
48241;SDS011;34041;51.812;4.622;2024-03-25T17:22:32;7.87;;;3.57;;
48241;SDS011;34041;51.812;4.622;2024-03-25T17:25:35;7.85;;;3.90;;
48241;SDS011;34041;51.812;4.622;2024-03-25T17:28:36;9.13;;;2.83;;
48241;SDS011;34041;51.812;4.622;2024-03-25T17:31:36;7.77;;;4.03;;
48241;SDS011;34041;51.812;4.622;2024-03-25T17:34:36;5.27;;;3.23;;
48241;SDS011;34041;51.812;4.622;2024-03-25T17:37:36;7.37;;;3.63;;
48241;SDS011;34041;51.812;4.622;2024-03-25T17:40:37;8.00;;;3.20;;
48241;SDS011;34041;51.812;4.622;2024-03-25T17:43:37;9.75;;;3.63;;
48241;SDS011;34041;51.812;4.622;2024-03-25T17:46:47;7.78;;;3.38;;
48241;SDS011;34041;51.812;4.622;2024-03-25T17:49:47;9.80;;;2.83;;
48241;SDS011;34041;51.812;4.622;2024-03-25T17:52:47;5.83;;;2.77;;
48241;SDS011;34041;51.812;4.622;2024-03-25T17:55:47;7.00;;;2.67;;